Time Latitude Longitude Accuracy (66% radius in meters) Altitude (meters) Speed (km/hour) Bearing (degrees) Battery (%) GPS flag
06:39:23 57.204749 60.116868 2 297.13543769083 1.9943708181381 62.426029205322 89 1 delete
06:39:20 57.204714 60.116778 2 297.00466620569 2.0028853416443 56.991847991943 89 1 delete
06:39:15 57.204674 60.116626 2 296.79205533382 2.0501306056976 76.995872497559 89 1 delete
06:39:13 57.204667 60.116559 2 296.70867029466 2.0648784637451 80.149841308594 89 1 delete
06:39:10 57.204660 60.116457 2 296.58303326722 2.1228275299072 80.875419616699 89 1 delete
06:39:05 57.204654 60.116283 2 296.38278621419 2.3002495765686 85.041786193848 89 1 delete
06:39:01 57.204649 60.116113 2 296.23516338657 2.3810603618622 93.039184570312 89 1 delete
06:39:00 57.204649 60.116067 2 296.20014353612 2.4146406650543 92.972732543945 89 1 delete
06:38:57 57.204653 60.115932 2 296.09789859708 2.542937040329 98.009422302246 89 1 delete
06:38:52 57.204695 60.115778 2 295.94274327283 2.9228858947754 98.804595947266 89 1 delete
06:38:50 57.204705 60.115694 2 295.88467670881 3.0231132507324 99.863594055176 89 1 delete
06:38:48 57.204715 60.115600 2 295.82993663653 3.099865436554 104.56492614746 89 1 delete
06:38:44 57.204733 60.115417 2 295.72591027059 3.2465965747833 95.236877441406 89 1 delete
06:38:40 57.204750 60.115215 2 295.6294876916 3.3461847305298 98.640632629395 89 1 delete
06:38:39 57.204749 60.115164 2 295.60704698669 3.3598372936249 82.251953125 89 1 delete
06:38:37 57.204745 60.115044 2 295.56424921081 3.3566908836365 86.406242370605 89 1 delete
06:38:34 57.204734 60.114845 2 295.5028485474 3.2444608211517 82.964431762695 89 1 delete
06:38:31 57.204729 60.114660 2 295.44338541226 3.1621975898743 86.037506103516 89 1 delete
06:38:29 57.204724 60.114540 3 295.40300750084 3.1532590389252 81.244400024414 89 1 delete
06:38:28 57.204724 60.114471 3 295.38285703685 3.1527321338654 89.186782836914 89 1 delete
06:38:25 57.204758 60.114293 3 295.3247234644 3.1501293182373 147.90351867676 89 1 delete
06:38:22 57.204865 60.114326 3 295.26837325712 2.961713552475 200.71519470215 89 1 delete
06:38:19 57.204953 60.114389 3 295.21274285121 1.6464890241623 204.74913024902 89 1 delete
06:38:18 57.204965 60.114390 3 295.19450271175 0.95570605993271 203.35803222656 89 1 delete
06:38:13 57.205045 60.114420 3 295.10974410504 2.1504466533661 175.0955657959 89 1 delete
06:38:07 57.205137 60.114466 3 295.04662811829 3.993679523468 259.47500610352 89 1 delete
06:38:05 57.205150 60.114677 2 294.97287288589 3.7881329059601 260.01110839844 89 1 delete
06:38:03 57.205176 60.114847 2 294.8125826539 3.5783994197845 250.08032226562 89 1 delete
06:38:00 57.205229 60.115066 2 294.48633450304 3.4160618782043 252.14326477051 89 1 delete
06:37:57 57.205276 60.115235 3 294.4532852562 3.6039562225342 196.04696655273 89 1 delete
06:37:54 57.205370 60.115183 3 294.42939193328 3.7031319141388 152.7433013916 89 1 delete
06:37:50 57.205481 60.115092 2 294.40509467733 3.8457479476929 152.76699829102 89 1 delete
06:37:47 57.205551 60.114956 3 294.3900659377 3.8691971302032 133.53253173828 89 1 delete
06:37:44 57.205627 60.114796 3 294.34959295132 3.7709500789642 133.37498474121 89 1 delete
06:37:41 57.205701 60.114646 3 294.31404193257 3.6781997680664 133.76089477539 89 1 delete
06:37:38 57.205779 60.114514 3 294.310798105 3.6772916316986 139.90631103516 89 1 delete
06:37:36 57.205827 60.114443 3 294.31129528798 3.7533648014069 137.48106384277 89 1 delete
06:37:32 57.205935 60.114303 3 294.31729947835 3.8982751369476 143.75354003906 89 1 delete
06:37:29 57.206029 60.114208 3 294.32256692511 3.9374771118164 145.82676696777 89 1 delete
06:37:26 57.206140 60.114104 3 294.32755203887 3.8600361347198 152.52067565918 89 1 delete
06:37:24 57.206240 60.114083 3 294.34697938093 3.7087609767914 187.33102416992 89 1 delete
06:37:21 57.206358 60.114215 3 294.37397985602 3.5880653858185 214.85729980469 89 1 delete
06:37:18 57.206457 60.114293 3 294.37659068131 3.6766374111176 201.40075683594 89 1 delete
06:37:14 57.206602 60.114289 3 294.37481580143 3.7429885864258 161.02799987793 89 1 delete
06:37:12 57.206680 60.114307 3 294.37143947584 3.6712362766266 200.31280517578 89 1 delete
06:37:10 57.206761 60.114380 3 294.30204533012 3.5081012248993 211.50450134277 89 1 delete
06:37:07 57.206796 60.114599 2 294.25158409083 3.3428521156311 268.39978027344 89 1 delete
06:37:01 57.206840 60.114963 3 294.08050105253 3.2318675518036 203.64883422852 89 1 delete
06:36:58 57.206951 60.115027 4 294.05783430838 3.2124290466309 177.99801635742 89 1 delete
06:36:55 57.207075 60.115022 3 293.94417535126 2.9131164550781 178.47393798828 89 1 delete